Time;durP1;ratioP1;P1;durP2;ratioP2;P2;SDS_P1;SDS_P2;PMS_P1;PMS_P2;Temp;Humidity;BMP_temperature;BMP_pressure;BME280_temperature;BME280_humidity;BME280_pressure;Samples;Min_cycle;Max_cycle;Signal;HPM_P1;HPM_P2
2021/07/11 00:00:13;;;;;;;1.30;1.17;;;19.00;98.00;;;;;;5114674;28;20455;-71
2021/07/11 00:02:40;;;;;;;1.20;1.00;;;19.00;98.00;;;;;;5114327;28;20953;-72
2021/07/11 00:05:10;;;;;;;1.30;1.20;;;19.10;98.00;;;;;;5114571;28;20495;-73
2021/07/11 00:07:37;;;;;;;1.30;1.17;;;19.10;98.00;;;;;;5114501;28;20507;-72
2021/07/11 00:10:06;;;;;;;1.20;1.10;;;19.00;98.00;;;;;;5114301;28;20956;-73
2021/07/11 00:12:34;;;;;;;1.30;1.00;;;18.80;98.00;;;;;;5114339;28;20458;-73
2021/07/11 00:15:01;;;;;;;1.30;1.00;;;18.70;98.00;;;;;;5114177;28;20964;-72
2021/07/11 00:17:29;;;;;;;1.40;1.20;;;18.70;98.00;;;;;;5114239;28;20508;-73
2021/07/11 00:19:56;;;;;;;1.60;1.30;;;18.60;98.00;;;;;;5114144;28;20454;-72
2021/07/11 00:22:23;;;;;;;1.20;1.00;;;18.70;98.00;;;;;;5112692;28;20517;-72
2021/07/11 00:24:51;;;;;;;1.30;1.30;;;18.50;98.00;;;;;;5114027;28;20451;-73
2021/07/11 00:27:19;;;;;;;1.27;1.17;;;18.20;98.00;;;;;;5113705;28;20550;-72
2021/07/11 00:29:46;;;;;;;1.20;1.10;;;18.20;98.00;;;;;;5114006;28;20517;-72
2021/07/11 00:32:15;;;;;;;1.20;1.00;;;18.30;98.00;;;;;;5113354;28;20582;-72
2021/07/11 00:34:43;;;;;;;1.80;1.40;;;18.20;98.00;;;;;;5113266;28;20516;-72
2021/07/11 00:37:10;;;;;;;1.30;1.10;;;18.10;98.00;;;;;;5113028;28;20459;-72
2021/07/11 00:39:38;;;;;;;1.20;1.00;;;18.00;98.00;;;;;;5113062;28;20447;-72
2021/07/11 00:42:05;;;;;;;1.30;1.10;;;18.00;98.00;;;;;;5112149;28;20467;-73
2021/07/11 00:44:32;;;;;;;1.47;1.20;;;18.00;98.00;;;;;;5112675;28;20516;-73
2021/07/11 00:46:59;;;;;;;1.37;1.03;;;17.90;98.00;;;;;;5113574;28;20519;-73
2021/07/11 00:49:29;;;;;;;1.20;1.20;;;17.90;98.00;;;;;;5114177;28;20455;-72
2021/07/11 00:51:57;;;;;;;1.40;1.20;;;17.90;98.00;;;;;;5112602;28;20451;-73
2021/07/11 00:54:25;;;;;;;1.30;1.07;;;17.90;98.00;;;;;;5113776;28;20516;-72
2021/07/11 00:56:52;;;;;;;1.20;1.00;;;17.90;98.00;;;;;;5113660;28;20485;-73
2021/07/11 00:59:20;;;;;;;1.20;1.10;;;17.90;98.00;;;;;;5113680;28;20516;-72
2021/07/11 01:01:54;;;;;;;1.93;1.20;;;17.90;98.00;;;;;;5113792;28;20558;-72
2021/07/11 01:04:28;;;;;;;1.20;1.03;;;17.90;98.00;;;;;;5113666;28;20478;-73
2021/07/11 01:07:01;;;;;;;1.20;1.10;;;18.00;98.00;;;;;;5112651;28;21000;-73
2021/07/11 01:09:33;;;;;;;1.20;1.10;;;17.80;98.00;;;;;;5113534;28;20458;-72
2021/07/11 01:12:04;;;;;;;1.37;1.10;;;17.70;98.00;;;;;;5113034;28;20455;-72
2021/07/11 01:14:33;;;;;;;1.20;1.10;;;17.80;98.00;;;;;;5113287;28;20860;-72
2021/07/11 01:17:03;;;;;;;1.50;1.03;;;17.80;98.00;;;;;;5113204;28;20516;-72
2021/07/11 01:19:54;;;;;;;1.40;1.20;;;17.80;98.00;;;;;;5113106;28;20455;-73
2021/07/11 01:22:29;;;;;;;1.20;1.00;;;17.60;98.00;;;;;;5112468;28;20475;-72
2021/07/11 01:25:02;;;;;;;1.20;0.90;;;17.60;98.00;;;;;;5113048;28;20456;-73
2021/07/11 01:27:32;;;;;;;1.20;1.00;;;17.60;98.00;;;;;;5112751;28;20512;-72
2021/07/11 01:30:00;;;;;;;1.70;1.40;;;17.60;98.00;;;;;;5112158;28;20455;-72
2021/07/11 01:32:30;;;;;;;1.20;1.10;;;17.60;98.00;;;;;;5112768;28;20452;-72
2021/07/11 01:35:04;;;;;;;2.03;1.40;;;17.60;98.00;;;;;;5111497;28;20507;-72
2021/07/11 01:37:32;;;;;;;1.20;1.07;;;17.70;98.00;;;;;;5112331;28;21006;-73
2021/07/11 01:40:01;;;;;;;1.60;1.30;;;17.60;98.00;;;;;;5112189;28;20471;-72
2021/07/11 01:42:29;;;;;;;1.20;1.10;;;17.70;98.00;;;;;;5112418;28;21004;-72
2021/07/11 01:44:58;;;;;;;1.30;1.10;;;17.70;98.00;;;;;;5112682;28;20935;-73
2021/07/11 01:47:27;;;;;;;1.20;1.03;;;17.60;98.00;;;;;;5112293;28;20487;-72
2021/07/11 01:49:54;;;;;;;1.50;1.10;;;17.70;98.00;;;;;;5112544;28;20466;-72
2021/07/11 01:52:21;;;;;;;1.20;1.00;;;17.70;98.00;;;;;;5112292;28;20500;-72
2021/07/11 01:54:49;;;;;;;1.20;1.10;;;17.70;98.00;;;;;;5112502;28;20515;-72
2021/07/11 01:57:16;;;;;;;1.87;1.10;;;17.70;98.00;;;;;;5112305;28;20509;-72
2021/07/11 01:59:43;;;;;;;1.20;1.00;;;17.70;98.00;;;;;;5112456;28;20459;-72
2021/07/11 02:02:12;;;;;;;1.20;1.00;;;17.70;98.00;;;;;;5112338;28;20451;-72
2021/07/11 02:04:40;;;;;;;1.20;1.10;;;17.70;98.00;;;;;;5111313;28;20500;-72
2021/07/11 02:07:07;;;;;;;1.20;1.10;;;17.80;98.00;;;;;;5094553;28;20638;-72
2021/07/11 02:09:35;;;;;;;1.20;1.10;;;17.80;98.00;;;;;;5112460;28;20467;-73
2021/07/11 02:12:05;;;;;;;1.20;1.10;;;17.80;98.00;;;;;;5112590;28;20855;-72
2021/07/11 02:14:36;;;;;;;1.50;1.30;;;17.80;98.00;;;;;;5112395;28;20459;-72
2021/07/11 02:17:09;;;;;;;1.27;1.10;;;17.80;98.00;;;;;;5112147;28;20451;-73
2021/07/11 02:19:39;;;;;;;1.20;1.00;;;17.80;98.00;;;;;;5112448;28;20456;-72
2021/07/11 02:22:08;;;;;;;1.20;1.00;;;17.60;98.00;;;;;;5112265;28;20542;-71
2021/07/11 02:24:37;;;;;;;1.20;1.10;;;17.60;98.00;;;;;;5112133;28;20508;-71
2021/07/11 02:27:05;;;;;;;2.93;1.20;;;17.60;98.00;;;;;;5112246;28;20487;-70
2021/07/11 02:29:38;;;;;;;1.30;1.20;;;17.60;98.00;;;;;;5111165;28;20463;-71
2021/07/11 02:32:09;;;;;;;1.20;1.10;;;17.70;98.00;;;;;;5112433;28;20454;-70
2021/07/11 02:34:39;;;;;;;1.20;1.10;;;17.60;98.00;;;;;;5112057;28;20494;-71
2021/07/11 02:37:09;;;;;;;1.20;1.10;;;17.70;98.00;;;;;;5111789;28;20509;-71
2021/07/11 02:39:39;;;;;;;1.20;1.00;;;17.60;98.00;;;;;;5112011;28;20463;-71
2021/07/11 02:42:09;;;;;;;1.30;1.10;;;17.70;98.00;;;;;;5111993;28;20463;-70
2021/07/11 02:44:38;;;;;;;1.20;1.00;;;17.70;98.00;;;;;;5110152;28;20512;-71
2021/07/11 02:47:10;;;;;;;1.20;1.00;;;17.60;98.00;;;;;;5111830;28;20486;-71
2021/07/11 02:49:42;;;;;;;1.30;1.20;;;17.60;98.00;;;;;;5111783;28;20451;-71
2021/07/11 02:52:09;;;;;;;1.20;1.10;;;17.50;98.00;;;;;;5110716;28;20828;-70
2021/07/11 02:54:42;;;;;;;1.20;1.00;;;17.50;98.00;;;;;;5111598;28;20481;-70
2021/07/11 02:57:11;;;;;;;1.53;1.20;;;17.50;98.00;;;;;;5111739;28;20447;-70
2021/07/11 02:59:40;;;;;;;1.20;1.10;;;17.50;98.00;;;;;;5111805;28;20459;-70
2021/07/11 03:02:09;;;;;;;1.20;1.03;;;17.30;98.00;;;;;;5111660;28;20463;-69
2021/07/11 03:04:40;;;;;;;1.20;1.07;;;17.30;98.00;;;;;;5111727;28;20459;-70
2021/07/11 03:07:08;;;;;;;1.20;1.07;;;17.40;98.00;;;;;;5110383;28;20488;-68
2021/07/11 03:09:36;;;;;;;1.20;1.10;;;17.30;98.00;;;;;;5111692;28;20487;-68
2021/07/11 03:12:04;;;;;;;1.20;1.17;;;17.40;98.00;;;;;;5111339;28;20491;-66
2021/07/11 03:14:34;;;;;;;1.30;1.07;;;17.50;98.00;;;;;;5111748;28;20477;-68
2021/07/11 03:17:03;;;;;;;1.20;1.10;;;17.30;98.00;;;;;;5110410;28;20487;-67
2021/07/11 03:19:31;;;;;;;1.30;1.07;;;17.30;98.00;;;;;;5111859;28;20500;-68
2021/07/11 03:22:00;;;;;;;1.20;1.10;;;17.30;98.00;;;;;;5111618;28;20528;-67
2021/07/11 03:24:31;;;;;;;1.20;1.10;;;17.20;98.00;;;;;;5111449;28;20943;-67
2021/07/11 03:26:58;;;;;;;1.20;1.10;;;17.30;98.00;;;;;;5111651;28;20506;-67
2021/07/11 03:29:30;;;;;;;1.40;1.20;;;17.20;98.00;;;;;;5113290;28;20451;-67
2021/07/11 03:31:58;;;;;;;1.20;1.00;;;17.30;98.00;;;;;;5115394;28;20980;-68
2021/07/11 03:34:28;;;;;;;1.20;1.00;;;17.40;98.00;;;;;;5115142;28;20458;-68
2021/07/11 03:36:59;;;;;;;1.30;1.10;;;17.50;98.00;;;;;;5114016;28;20810;-66
2021/07/11 03:39:28;;;;;;;1.30;1.20;;;17.50;98.00;;;;;;5115143;28;20458;-68
2021/07/11 03:41:59;;;;;;;1.40;1.17;;;17.60;98.00;;;;;;5115215;28;20494;-67
2021/07/11 03:44:33;;;;;;;1.30;1.20;;;17.40;98.00;;;;;;5115187;28;20508;-67
2021/07/11 03:47:03;;;;;;;1.30;1.00;;;17.30;98.00;;;;;;5115043;28;20564;-68
2021/07/11 03:49:31;;;;;;;1.40;1.20;;;17.20;98.00;;;;;;5115061;28;20467;-67
2021/07/11 03:52:04;;;;;;;1.20;1.00;;;17.20;98.00;;;;;;5115218;28;20617;-68
2021/07/11 03:54:35;;;;;;;1.20;1.10;;;17.20;98.00;;;;;;5114845;28;20538;-68
2021/07/11 03:57:03;;;;;;;1.20;1.03;;;17.30;98.00;;;;;;5113404;28;20498;-69
2021/07/11 03:59:31;;;;;;;1.27;1.23;;;17.20;98.00;;;;;;5114833;27;20447;-68
2021/07/11 04:01:59;;;;;;;1.30;1.20;;;17.30;98.00;;;;;;5114617;28;20473;-68
2021/07/11 04:04:27;;;;;;;1.20;1.10;;;17.50;98.00;;;;;;5114441;28;20486;-68
2021/07/11 04:06:56;;;;;;;1.20;1.00;;;17.50;98.00;;;;;;5114392;28;20540;-68
2021/07/11 04:09:26;;;;;;;1.20;1.00;;;17.40;98.00;;;;;;5113151;28;20470;-67
2021/07/11 04:11:54;;;;;;;1.20;1.03;;;17.50;98.00;;;;;;5114338;28;20948;-67
2021/07/11 04:14:23;;;;;;;1.20;1.20;;;17.60;98.00;;;;;;5114296;28;20530;-68
2021/07/11 04:16:55;;;;;;;1.20;1.10;;;17.60;98.00;;;;;;5114351;28;20578;-67
2021/07/11 04:19:25;;;;;;;1.20;1.00;;;17.50;98.00;;;;;;5114430;28;20874;-70
2021/07/11 04:21:54;;;;;;;1.20;1.07;;;17.40;98.00;;;;;;5112754;28;20562;-68
2021/07/11 04:24:24;;;;;;;1.20;0.90;;;17.20;98.00;;;;;;5113042;28;20439;-68
2021/07/11 04:26:52;;;;;;;1.53;1.20;;;17.10;98.00;;;;;;5096343;28;20549;-67
2021/07/11 04:29:20;;;;;;;1.20;1.00;;;17.10;98.00;;;;;;5114048;28;20451;-68
2021/07/11 04:31:47;;;;;;;1.93;1.20;;;17.30;98.00;;;;;;5113999;28;20483;-68
2021/07/11 04:34:25;;;;;;;1.47;1.10;;;17.30;98.00;;;;;;5114138;28;20458;-69
2021/07/11 04:36:53;;;;;;;1.60;1.13;;;17.40;98.00;;;;;;5113784;28;20840;-68
2021/07/11 04:39:20;;;;;;;1.20;1.00;;;17.30;98.00;;;;;;5113774;28;20858;-68
2021/07/11 04:41:49;;;;;;;1.40;1.07;;;17.40;98.00;;;;;;5113980;28;20504;-67
2021/07/11 04:44:17;;;;;;;1.50;1.20;;;17.40;98.00;;;;;;5113921;28;20789;-67
2021/07/11 04:46:44;;;;;;;1.40;1.10;;;17.40;98.00;;;;;;5112557;28;20573;-68
2021/07/11 04:49:12;;;;;;;1.23;1.07;;;17.40;98.00;;;;;;5113969;28;20482;-67
2021/07/11 04:51:39;;;;;;;1.40;1.17;;;17.50;98.00;;;;;;5113877;28;20447;-68
2021/07/11 04:54:07;;;;;;;1.67;1.33;;;17.70;98.00;;;;;;5113650;28;20929;-67
2021/07/11 04:56:36;;;;;;;1.23;1.17;;;17.80;98.00;;;;;;5113664;28;20489;-68
2021/07/11 04:59:05;;;;;;;1.50;1.13;;;17.80;98.00;;;;;;5112411;28;20452;-68
2021/07/11 05:01:32;;;;;;;1.30;1.17;;;17.90;98.00;;;;;;5113540;28;20482;-68
2021/07/11 05:04:00;;;;;;;1.20;1.00;;;18.00;98.00;;;;;;5113616;28;20495;-68
2021/07/11 05:06:27;;;;;;;1.20;1.10;;;18.00;98.00;;;;;;5113548;28;20490;-68
2021/07/11 05:08:59;;;;;;;1.20;1.00;;;17.80;98.00;;;;;;5113638;28;20455;-68
2021/07/11 05:11:27;;;;;;;1.20;1.20;;;17.80;98.00;;;;;;5113349;28;20463;-69
2021/07/11 05:13:55;;;;;;;1.30;1.20;;;17.70;98.00;;;;;;5113390;28;20872;-68
2021/07/11 05:16:24;;;;;;;1.30;1.20;;;17.70;98.00;;;;;;5113026;28;20511;-67
2021/07/11 05:18:51;;;;;;;6.50;1.57;;;17.60;98.00;;;;;;5113192;28;20973;-67
2021/07/11 05:21:18;;;;;;;1.20;1.00;;;17.70;98.00;;;;;;5112738;28;20491;-68
2021/07/11 05:23:45;;;;;;;1.20;1.17;;;17.80;98.00;;;;;;5112808;28;20540;-67
2021/07/11 05:26:12;;;;;;;1.80;1.23;;;17.70;98.00;;;;;;5112710;28;21089;-67
2021/07/11 05:28:40;;;;;;;1.20;1.10;;;17.60;98.00;;;;;;5112957;28;20515;-68
2021/07/11 05:31:07;;;;;;;1.60;1.20;;;17.50;98.00;;;;;;5112936;28;20463;-69
2021/07/11 05:33:35;;;;;;;1.30;1.20;;;17.60;98.00;;;;;;5112818;28;20463;-70
2021/07/11 05:36:03;;;;;;;1.20;1.00;;;17.80;98.00;;;;;;5112780;28;20455;-69
2021/07/11 05:38:30;;;;;;;1.20;1.03;;;18.00;98.00;;;;;;5112800;28;20455;-70
2021/07/11 05:40:57;;;;;;;1.20;1.20;;;17.90;98.00;;;;;;5112721;28;20523;-70
2021/07/11 05:43:24;;;;;;;1.20;1.10;;;17.90;98.00;;;;;;5112168;28;20451;-70
2021/07/11 05:45:53;;;;;;;1.30;1.10;;;17.80;98.00;;;;;;5112872;28;20930;-71
2021/07/11 05:48:20;;;;;;;1.20;1.20;;;17.80;98.00;;;;;;5112324;28;20623;-70
2021/07/11 05:50:49;;;;;;;1.20;1.20;;;17.80;98.00;;;;;;5112700;28;20508;-70
2021/07/11 05:53:16;;;;;;;1.20;1.10;;;17.80;98.00;;;;;;5111974;28;21013;-68
2021/07/11 05:55:45;;;;;;;1.50;1.20;;;17.90;98.00;;;;;;5112611;28;20490;-69
2021/07/11 05:58:12;;;;;;;1.53;1.20;;;18.10;98.00;;;;;;5111207;28;20519;-68
2021/07/11 06:00:42;;;;;;;1.70;1.07;;;18.10;98.00;;;;;;5112536;28;20969;-68
2021/07/11 06:03:09;;;;;;;1.23;1.07;;;18.00;98.00;;;;;;5112332;28;20536;-68
2021/07/11 06:05:37;;;;;;;1.20;1.00;;;18.00;98.00;;;;;;5112180;28;20493;-69
2021/07/11 06:08:07;;;;;;;1.20;1.10;;;18.00;98.00;;;;;;5112342;28;20483;-68
2021/07/11 06:10:35;;;;;;;1.83;1.20;;;18.00;98.00;;;;;;5112402;28;20524;-68
2021/07/11 06:13:02;;;;;;;1.50;1.17;;;18.10;98.00;;;;;;5112231;28;20961;-69
2021/07/11 06:15:29;;;;;;;1.20;1.10;;;18.20;98.00;;;;;;5112351;28;20516;-69
2021/07/11 06:18:00;;;;;;;1.30;1.20;;;18.20;98.00;;;;;;5112335;28;20494;-69
2021/07/11 06:20:27;;;;;;;2.00;1.20;;;18.30;98.00;;;;;;5111068;28;20627;-69
2021/07/11 06:22:54;;;;;;;1.30;1.20;;;18.30;98.00;;;;;;5112048;28;20490;-70
2021/07/11 06:25:22;;;;;;;1.20;1.00;;;18.40;98.00;;;;;;5112238;28;20476;-69
2021/07/11 06:27:49;;;;;;;1.30;1.20;;;18.30;98.00;;;;;;5112246;28;20483;-71
2021/07/11 06:30:19;;;;;;;1.20;1.10;;;18.30;98.00;;;;;;5112181;28;20869;-70
2021/07/11 06:32:49;;;;;;;1.30;1.17;;;18.40;98.00;;;;;;5112020;28;20491;-70
2021/07/11 06:35:18;;;;;;;1.50;1.30;;;18.30;98.00;;;;;;5111838;28;20447;-70
2021/07/11 06:37:46;;;;;;;1.73;1.60;;;18.30;98.00;;;;;;5112026;28;20451;-69
2021/07/11 06:40:14;;;;;;;2.00;1.10;;;18.20;98.00;;;;;;5111955;28;20940;-69
2021/07/11 06:42:43;;;;;;;1.27;1.23;;;18.20;98.00;;;;;;5111918;28;20458;-69
2021/07/11 06:45:13;;;;;;;1.20;1.20;;;18.20;98.00;;;;;;5112122;28;20871;-71
2021/07/11 06:47:42;;;;;;;1.60;1.30;;;18.20;98.00;;;;;;5111788;28;20564;-70
2021/07/11 06:50:14;;;;;;;1.57;1.20;;;18.40;98.00;;;;;;5111941;28;20463;-69
2021/07/11 06:52:43;;;;;;;1.50;1.40;;;18.50;98.00;;;;;;5093932;28;20451;-70
2021/07/11 06:55:14;;;;;;;1.40;1.10;;;18.40;98.00;;;;;;5112055;28;20912;-70
2021/07/11 06:57:43;;;;;;;1.60;1.30;;;18.40;98.00;;;;;;5111442;28;21132;-69
2021/07/11 07:00:12;;;;;;;1.20;1.20;;;18.50;98.00;;;;;;5110623;28;20483;-70
2021/07/11 07:02:41;;;;;;;1.30;1.20;;;18.70;98.00;;;;;;5111736;28;20509;-71
2021/07/11 07:05:11;;;;;;;1.50;1.20;;;18.80;98.00;;;;;;5114763;28;20455;-72
2021/07/11 07:07:39;;;;;;;1.20;1.20;;;18.80;98.00;;;;;;5115497;28;20478;-71
2021/07/11 07:10:09;;;;;;;1.20;1.20;;;19.00;98.00;;;;;;5115640;28;20455;-72
2021/07/11 07:12:37;;;;;;;1.40;1.30;;;19.10;98.00;;;;;;5115577;28;20522;-72
2021/07/11 07:15:07;;;;;;;1.30;1.30;;;19.30;98.00;;;;;;5114513;28;20479;-71
2021/07/11 07:17:35;;;;;;;1.27;1.23;;;19.50;98.00;;;;;;5115552;28;20953;-72
2021/07/11 07:20:05;;;;;;;1.20;1.10;;;19.70;98.00;;;;;;5115372;28;20512;-71
2021/07/11 07:22:33;;;;;;;1.20;1.20;;;19.70;98.00;;;;;;5115272;28;20553;-71
2021/07/11 07:25:01;;;;;;;1.20;1.10;;;19.70;98.00;;;;;;5115321;28;21038;-71
2021/07/11 07:27:28;;;;;;;1.30;1.13;;;19.70;98.00;;;;;;5115330;28;20486;-71
2021/07/11 07:29:55;;;;;;;1.77;1.40;;;19.90;98.00;;;;;;5115309;27;20458;-71
2021/07/11 07:32:28;;;;;;;1.20;1.13;;;20.00;98.00;;;;;;5110738;28;20468;-69
2021/07/11 07:34:55;;;;;;;1.90;1.50;;;20.10;98.00;;;;;;5100698;28;20493;-69
2021/07/11 07:37:22;;;;;;;1.30;1.20;;;20.20;98.00;;;;;;5108147;28;21020;-69
2021/07/11 07:39:49;;;;;;;1.93;1.30;;;20.20;98.00;;;;;;5092915;28;20452;-68
2021/07/11 07:42:18;;;;;;;1.30;1.20;;;20.00;98.00;;;;;;5092378;28;20970;-69
2021/07/11 07:44:45;;;;;;;1.93;1.20;;;19.90;98.00;;;;;;5093738;28;20460;-69
2021/07/11 07:47:13;;;;;;;1.73;1.17;;;19.80;98.00;;;;;;5108313;28;20472;-68
2021/07/11 07:49:41;;;;;;;1.20;1.10;;;19.80;98.00;;;;;;5104789;28;20475;-69
2021/07/11 07:52:09;;;;;;;1.80;1.50;;;19.60;98.00;;;;;;5099706;28;20515;-69
2021/07/11 07:54:37;;;;;;;1.57;1.30;;;19.50;98.00;;;;;;5087595;28;21015;-69
2021/07/11 07:57:05;;;;;;;1.20;1.03;;;19.40;98.00;;;;;;5103806;28;20460;-69
2021/07/11 07:59:32;;;;;;;1.50;1.17;;;19.30;98.00;;;;;;5094111;28;20501;-69
2021/07/11 08:01:59;;;;;;;1.20;1.10;;;19.20;98.00;;;;;;5100217;28;20506;-69
2021/07/11 08:04:26;;;;;;;1.40;1.30;;;19.30;98.00;;;;;;5101213;28;20458;-69
2021/07/11 08:06:55;;;;;;;1.30;1.20;;;19.50;98.00;;;;;;5092819;28;20529;-69
2021/07/11 08:09:22;;;;;;;1.20;1.20;;;19.70;98.00;;;;;;5101431;28;20494;-69
2021/07/11 08:11:49;;;;;;;1.93;1.30;;;19.90;98.00;;;;;;5099983;28;20452;-65
2021/07/11 08:14:16;;;;;;;1.20;1.10;;;20.10;98.00;;;;;;5108798;28;20455;-66
2021/07/11 08:16:43;;;;;;;1.20;1.10;;;20.30;98.00;;;;;;5092699;28;20460;-67
2021/07/11 08:19:11;;;;;;;2.23;1.53;;;20.40;98.00;;;;;;5109672;28;20530;-66
2021/07/11 08:21:44;;;;;;;1.40;1.40;;;20.60;98.00;;;;;;5108392;28;20482;-67
2021/07/11 08:24:12;;;;;;;1.30;1.10;;;20.50;98.00;;;;;;5100054;28;20460;-67
2021/07/11 08:26:41;;;;;;;1.20;1.10;;;20.70;98.00;;;;;;5101185;28;20951;-68
2021/07/11 08:29:08;;;;;;;1.40;1.27;;;20.80;98.00;;;;;;5100531;28;20541;-68
2021/07/11 08:31:36;;;;;;;1.70;1.27;;;21.10;98.00;;;;;;5108523;28;20515;-67
2021/07/11 08:34:05;;;;;;;1.40;1.40;;;21.20;98.00;;;;;;5100965;28;20881;-67
2021/07/11 08:36:32;;;;;;;1.30;1.30;;;21.40;98.00;;;;;;5101440;28;20447;-68
2021/07/11 08:38:59;;;;;;;1.40;1.20;;;21.50;98.00;;;;;;5100715;28;20492;-67
2021/07/11 08:41:28;;;;;;;1.50;1.30;;;21.60;98.00;;;;;;5092518;28;20483;-68
2021/07/11 08:43:55;;;;;;;2.60;1.50;;;21.20;98.00;;;;;;5101264;28;20459;-69
2021/07/11 08:46:23;;;;;;;1.20;1.10;;;20.90;98.00;;;;;;5100585;28;20527;-67
2021/07/11 08:48:51;;;;;;;1.77;1.23;;;20.70;98.00;;;;;;5107931;28;20498;-67
2021/07/11 08:51:18;;;;;;;1.20;1.10;;;20.50;98.00;;;;;;5092477;28;20970;-67
2021/07/11 08:53:46;;;;;;;1.50;1.40;;;20.40;98.00;;;;;;5101287;28;20515;-66
2021/07/11 08:56:18;;;;;;;1.20;1.10;;;20.50;98.00;;;;;;5100401;28;20462;-68
2021/07/11 08:58:50;;;;;;;1.60;1.40;;;20.50;98.00;;;;;;5099210;28;20456;-68
2021/07/11 09:01:19;;;;;;;2.07;1.50;;;20.70;98.00;;;;;;5092437;28;20518;-68
2021/07/11 09:03:58;;;;;;;1.23;1.23;;;20.80;98.00;;;;;;5092855;28;20466;-67
2021/07/11 09:06:25;;;;;;;1.20;1.10;;;20.90;98.00;;;;;;5104065;28;20470;-67
2021/07/11 09:08:57;;;;;;;1.20;1.10;;;20.80;98.00;;;;;;5105360;28;20491;-69
2021/07/11 09:11:25;;;;;;;1.20;1.10;;;20.90;98.00;;;;;;5103755;28;20492;-69
2021/07/11 09:13:54;;;;;;;1.30;1.20;;;20.70;98.00;;;;;;5081723;28;20460;-68
2021/07/11 09:16:22;;;;;;;1.40;1.20;;;20.70;98.00;;;;;;5095080;28;20551;-66
2021/07/11 09:18:52;;;;;;;1.30;1.10;;;20.60;98.00;;;;;;5091130;28;20996;-68
2021/07/11 09:21:20;;;;;;;1.30;1.30;;;20.40;98.00;;;;;;5099774;28;20464;-69
2021/07/11 09:23:47;;;;;;;1.33;1.17;;;20.30;98.00;;;;;;5094860;28;20470;-70
2021/07/11 09:26:17;;;;;;;1.50;1.40;;;20.30;98.00;;;;;;5103960;28;21020;-68
2021/07/11 09:28:48;;;;;;;1.20;1.10;;;20.40;98.00;;;;;;5099093;28;20495;-68
2021/07/11 09:31:19;;;;;;;1.80;1.20;;;20.50;98.00;;;;;;5096231;28;20514;-67
2021/07/11 09:33:54;;;;;;;1.30;1.30;;;20.50;98.00;;;;;;5103205;28;20448;-69
2021/07/11 09:36:22;;;;;;;1.30;1.13;;;20.60;98.00;;;;;;5096533;28;20462;-69
2021/07/11 09:38:51;;;;;;;1.40;1.17;;;20.70;98.00;;;;;;5107368;28;20551;-69
2021/07/11 09:41:22;;;;;;;1.20;1.10;;;20.70;98.00;;;;;;5094005;28;20929;-70
2021/07/11 09:43:50;;;;;;;1.30;1.23;;;20.70;98.00;;;;;;5097471;28;20447;-69
2021/07/11 09:46:19;;;;;;;1.20;1.07;;;20.70;98.00;;;;;;5102213;28;20868;-69
2021/07/11 09:48:47;;;;;;;1.20;1.20;;;20.60;98.00;;;;;;5090461;28;20568;-69
2021/07/11 09:51:18;;;;;;;1.27;1.23;;;20.50;98.00;;;;;;5097155;28;20873;-68
2021/07/11 09:53:51;;;;;;;1.30;1.13;;;20.40;98.00;;;;;;5097296;28;20512;-69
2021/07/11 09:56:35;;;;;;;1.80;1.50;;;20.30;98.00;;;;;;5108658;28;20454;-70
2021/07/11 09:59:04;;;;;;;1.20;1.20;;;20.40;98.00;;;;;;5098742;28;20919;-71
2021/07/11 10:01:34;;;;;;;1.93;1.83;;;20.50;98.00;;;;;;5099709;28;20459;-70
2021/07/11 10:04:03;;;;;;;1.40;1.40;;;20.40;98.00;;;;;;5099550;28;20530;-69
2021/07/11 10:06:31;;;;;;;1.30;1.10;;;20.40;98.00;;;;;;5097860;28;20950;-70
2021/07/11 10:08:59;;;;;;;1.43;1.20;;;20.20;98.00;;;;;;5099091;28;20551;-68
2021/07/11 10:11:27;;;;;;;1.63;1.20;;;20.30;98.00;;;;;;5107135;28;20484;-68
2021/07/11 10:13:54;;;;;;;1.30;1.23;;;20.40;98.00;;;;;;5091072;28;20463;-71
2021/07/11 10:16:24;;;;;;;1.53;1.30;;;20.50;98.00;;;;;;5099514;28;20456;-69
2021/07/11 10:18:57;;;;;;;1.60;1.30;;;20.50;98.00;;;;;;5082554;28;20499;-69
2021/07/11 10:21:28;;;;;;;1.67;1.30;;;20.50;98.00;;;;;;5090907;28;20451;-69
2021/07/11 10:23:56;;;;;;;1.40;1.27;;;20.60;98.00;;;;;;5099447;28;20459;-68
2021/07/11 10:26:25;;;;;;;1.20;1.10;;;20.60;98.00;;;;;;5099016;28;20461;-69
2021/07/11 10:28:52;;;;;;;1.90;1.50;;;20.80;98.00;;;;;;5105362;28;20842;-70
2021/07/11 10:31:21;;;;;;;1.40;1.30;;;20.90;98.00;;;;;;5090673;28;20451;-69
2021/07/11 10:33:49;;;;;;;1.40;1.20;;;21.00;98.00;;;;;;5099469;28;20511;-69
2021/07/11 10:36:18;;;;;;;1.67;1.20;;;20.90;98.00;;;;;;5106906;28;20516;-69
2021/07/11 10:38:51;;;;;;;1.57;1.30;;;21.00;98.00;;;;;;5101818;28;20458;-68
2021/07/11 10:41:21;;;;;;;1.30;1.30;;;21.20;98.00;;;;;;5103066;28;20478;-69
2021/07/11 10:44:01;;;;;;;1.47;1.23;;;21.40;98.00;;;;;;5111389;28;20459;-68
2021/07/11 10:46:33;;;;;;;1.20;1.00;;;21.60;98.00;;;;;;5108281;28;20958;-69
2021/07/11 10:49:11;;;;;;;1.30;1.20;;;21.70;98.00;;;;;;5102769;28;20541;-68
2021/07/11 10:51:44;;;;;;;1.57;1.23;;;21.90;98.00;;;;;;5093293;28;20456;-69
2021/07/11 10:54:21;;;;;;;1.50;1.40;;;21.90;98.00;;;;;;5103042;28;20459;-69
2021/07/11 10:56:49;;;;;;;1.37;1.10;;;21.80;98.00;;;;;;5103677;28;20529;-68
2021/07/11 10:59:29;;;;;;;1.40;1.20;;;21.90;98.00;;;;;;5094310;28;20452;-69
2021/07/11 11:01:58;;;;;;;1.20;1.10;;;21.90;96.70;;;;;;5102183;28;20446;-68
2021/07/11 11:04:25;;;;;;;1.57;1.50;;;21.90;97.10;;;;;;5102827;28;20451;-70
2021/07/11 11:06:54;;;;;;;1.23;1.13;;;22.00;96.40;;;;;;5102891;28;20863;-70
2021/07/11 11:09:40;;;;;;;1.30;1.20;;;22.30;97.70;;;;;;5092641;28;20494;-68
2021/07/11 11:12:23;;;;;;;1.20;1.20;;;22.30;95.10;;;;;;5094095;28;20524;-69
2021/07/11 11:14:57;;;;;;;1.30;1.10;;;22.10;96.10;;;;;;5103572;28;21044;-68
2021/07/11 11:17:33;;;;;;;1.30;1.20;;;22.00;95.40;;;;;;5094236;28;20558;-69
2021/07/11 11:20:02;;;;;;;1.20;1.10;;;21.90;96.90;;;;;;5102645;28;20922;-68
2021/07/11 11:22:33;;;;;;;1.30;1.17;;;22.00;96.50;;;;;;5098176;28;20492;-68
2021/07/11 11:25:00;;;;;;;1.20;1.10;;;22.00;96.60;;;;;;5080558;28;20885;-68
2021/07/11 11:27:32;;;;;;;1.30;1.20;;;21.70;98.00;;;;;;5098949;28;20463;-69
2021/07/11 11:30:12;;;;;;;1.30;1.10;;;21.70;98.00;;;;;;5106887;28;20590;-68
2021/07/11 11:32:39;;;;;;;1.70;1.30;;;21.60;98.00;;;;;;5095231;28;20557;-68
2021/07/11 11:35:08;;;;;;;1.30;1.20;;;21.50;98.00;;;;;;5109156;28;20461;-69
2021/07/11 11:37:39;;;;;;;1.20;1.10;;;21.60;97.50;;;;;;5095978;28;20485;-67
2021/07/11 11:40:09;;;;;;;1.40;1.20;;;21.50;98.00;;;;;;5094106;28;20455;-67
2021/07/11 11:42:37;;;;;;;1.20;1.00;;;21.70;98.00;;;;;;5093888;28;20515;-68
2021/07/11 11:45:07;;;;;;;1.20;1.20;;;21.70;98.00;;;;;;5109254;28;20468;-68
2021/07/11 11:47:34;;;;;;;2.03;1.40;;;21.80;98.00;;;;;;5101854;28;20460;-68
2021/07/11 11:50:14;;;;;;;1.20;1.10;;;21.70;98.00;;;;;;5105064;28;20505;-69
2021/07/11 11:52:43;;;;;;;1.30;1.10;;;21.80;98.00;;;;;;5089981;28;20488;-67
2021/07/11 11:55:11;;;;;;;2.33;1.50;;;21.80;98.00;;;;;;5093402;28;20891;-68
2021/07/11 11:57:39;;;;;;;1.30;1.20;;;22.00;98.00;;;;;;5101103;28;20465;-70
2021/07/11 12:00:13;;;;;;;1.50;1.47;;;22.00;98.00;;;;;;5110224;28;20455;-71
2021/07/11 12:02:41;;;;;;;1.80;1.17;;;22.00;98.00;;;;;;5101827;28;20467;-68
2021/07/11 12:05:12;;;;;;;1.47;1.37;;;22.10;98.00;;;;;;5092875;28;20455;-70
2021/07/11 12:07:40;;;;;;;1.37;1.23;;;22.20;98.00;;;;;;5093579;28;20543;-65
2021/07/11 12:10:13;;;;;;;1.27;1.23;;;22.30;98.00;;;;;;5101347;28;20548;-67
2021/07/11 12:12:41;;;;;;;1.30;1.30;;;22.20;98.00;;;;;;5093214;28;20467;-67
2021/07/11 12:15:09;;;;;;;1.33;1.17;;;22.30;98.00;;;;;;5107023;28;20505;-68
2021/07/11 12:17:37;;;;;;;1.40;1.30;;;22.30;96.20;;;;;;5100652;28;20487;-68
2021/07/11 12:20:09;;;;;;;1.30;1.30;;;22.10;97.30;;;;;;5092522;28;20501;-68
2021/07/11 12:22:38;;;;;;;1.20;1.10;;;21.90;97.20;;;;;;5109125;27;20504;-68
2021/07/11 12:25:13;;;;;;;1.20;1.20;;;22.10;98.00;;;;;;5108385;28;21041;-67
2021/07/11 12:27:42;;;;;;;1.40;1.30;;;22.10;98.00;;;;;;5101034;28;20525;-69
2021/07/11 12:30:12;;;;;;;1.33;1.10;;;22.00;98.00;;;;;;5100435;28;20495;-67
2021/07/11 12:32:47;;;;;;;1.20;1.00;;;22.00;98.00;;;;;;5103814;28;20548;-67
2021/07/11 12:35:15;;;;;;;1.20;1.20;;;22.00;98.00;;;;;;5109225;28;20519;-68
2021/07/11 12:37:52;;;;;;;1.30;1.23;;;22.00;98.00;;;;;;5109828;28;20827;-68
2021/07/11 12:40:23;;;;;;;1.20;1.20;;;22.30;98.00;;;;;;5104768;28;20495;-68
2021/07/11 12:43:01;;;;;;;1.40;1.20;;;22.40;98.00;;;;;;5093255;28;20535;-68
2021/07/11 12:45:28;;;;;;;1.53;1.37;;;22.40;98.00;;;;;;5100425;28;20460;-68
2021/07/11 12:47:55;;;;;;;1.20;1.10;;;22.50;97.70;;;;;;5098865;28;20491;-67
2021/07/11 12:50:32;;;;;;;1.60;1.20;;;22.50;98.00;;;;;;5092135;28;20587;-69
2021/07/11 12:52:59;;;;;;;1.30;1.20;;;22.60;98.00;;;;;;5100347;28;20460;-69
2021/07/11 12:55:31;;;;;;;1.30;1.27;;;22.60;97.90;;;;;;5092486;28;20549;-68
2021/07/11 12:58:09;;;;;;;1.83;1.40;;;22.80;98.00;;;;;;5090618;28;20960;-67